Time;durP1;ratioP1;P1;durP2;ratioP2;P2;SDS_P1;SDS_P2;PMS_P1;PMS_P2;Temp;Humidity;BMP_temperature;BMP_pressure;BME280_temperature;BME280_humidity;BME280_pressure;Samples;Min_cycle;Max_cycle;Signal;HPM_P1;HPM_P2
2021/07/06 00:01:25;;;;;;;6.78;2.90;;;14.60;77.20;;;;;;6093766;23;20076;-70
2021/07/06 00:03:53;;;;;;;6.43;1.90;;;14.50;77.20;;;;;;6094064;23;20415;-70
2021/07/06 00:06:20;;;;;;;5.25;2.60;;;14.50;77.10;;;;;;6092502;23;20086;-70
2021/07/06 00:08:46;;;;;;;6.03;2.30;;;14.50;77.10;;;;;;6094007;23;20010;-71
2021/07/06 00:11:13;;;;;;;8.85;2.40;;;14.50;77.20;;;;;;6093549;23;20006;-70
2021/07/06 00:13:39;;;;;;;4.63;2.03;;;14.50;77.20;;;;;;6094623;23;20098;-70
2021/07/06 00:16:06;;;;;;;8.18;3.10;;;14.50;77.20;;;;;;6093299;23;20006;-70
2021/07/06 00:18:32;;;;;;;6.40;2.45;;;14.50;77.40;;;;;;6094582;23;20010;-70
2021/07/06 00:21:00;;;;;;;8.70;2.53;;;14.50;77.40;;;;;;6094114;23;20389;-70
2021/07/06 00:23:28;;;;;;;6.47;2.35;;;14.50;77.50;;;;;;6094709;23;19998;-69
2021/07/06 00:25:55;;;;;;;7.10;2.33;;;14.40;77.50;;;;;;6094980;23;20006;-70
2021/07/06 00:28:23;;;;;;;11.23;2.95;;;14.50;77.60;;;;;;6093388;23;20004;-69
2021/07/06 00:30:51;;;;;;;7.25;2.80;;;14.50;77.60;;;;;;6094616;23;19998;-70
2021/07/06 00:33:18;;;;;;;5.63;2.70;;;14.40;77.60;;;;;;6093290;23;20006;-69
2021/07/06 00:35:45;;;;;;;10.38;3.33;;;14.40;77.60;;;;;;6094620;23;20434;-70
2021/07/06 00:38:12;;;;;;;7.20;2.22;;;14.40;77.50;;;;;;6093319;23;20018;-69
2021/07/06 00:40:41;;;;;;;8.43;2.20;;;14.40;77.60;;;;;;6094178;23;19998;-71
2021/07/06 00:43:07;;;;;;;9.23;2.85;;;14.40;77.70;;;;;;6094336;23;20007;-70
2021/07/06 00:45:34;;;;;;;8.30;2.72;;;14.40;77.70;;;;;;6093566;23;20006;-70
2021/07/06 00:48:01;;;;;;;9.45;2.97;;;14.40;77.70;;;;;;6094683;23;20006;-70
2021/07/06 00:50:29;;;;;;;6.50;3.20;;;14.40;77.70;;;;;;6093138;23;20002;-70
2021/07/06 00:52:56;;;;;;;7.47;3.13;;;14.40;77.70;;;;;;6094474;23;19998;-70
2021/07/06 00:55:23;;;;;;;8.63;2.72;;;14.30;77.80;;;;;;6093348;23;20378;-70
2021/07/06 00:57:49;;;;;;;9.52;3.95;;;14.40;77.90;;;;;;6094329;23;20472;-70
2021/07/06 01:00:20;;;;;;;11.88;4.20;;;14.40;77.90;;;;;;6093964;23;20089;-70
2021/07/06 01:02:47;;;;;;;6.78;2.92;;;14.40;78.00;;;;;;6093238;23;20371;-70
2021/07/06 01:05:17;;;;;;;3.97;1.80;;;14.40;78.10;;;;;;6094227;23;20010;-70
2021/07/06 01:07:43;;;;;;;7.85;3.28;;;14.30;78.10;;;;;;6093356;23;20025;-70
2021/07/06 01:10:11;;;;;;;10.07;3.30;;;14.30;78.20;;;;;;6094072;23;20009;-70
2021/07/06 01:12:37;;;;;;;8.20;2.42;;;14.30;78.20;;;;;;6092889;23;20018;-70
2021/07/06 01:15:08;;;;;;;9.48;3.05;;;14.30;78.20;;;;;;6094285;23;20006;-70
2021/07/06 01:17:37;;;;;;;6.35;2.80;;;14.30;78.30;;;;;;6093762;23;20015;-70
2021/07/06 01:20:08;;;;;;;12.23;3.15;;;14.30;78.30;;;;;;6093177;23;20426;-70
2021/07/06 01:22:35;;;;;;;10.73;3.67;;;14.30;78.30;;;;;;6094041;23;20078;-70
2021/07/06 01:25:04;;;;;;;11.05;3.40;;;14.30;78.30;;;;;;6093046;23;20426;-70
2021/07/06 01:27:31;;;;;;;4.43;2.88;;;14.30;78.30;;;;;;6094065;23;20006;-70
2021/07/06 01:29:57;;;;;;;6.93;3.10;;;14.30;78.30;;;;;;6092869;23;20109;-70
2021/07/06 01:32:24;;;;;;;6.80;3.03;;;14.30;78.40;;;;;;6094248;23;20002;-70
2021/07/06 01:34:50;;;;;;;10.82;3.90;;;14.30;78.50;;;;;;6093535;23;20453;-70
2021/07/06 01:37:18;;;;;;;8.38;2.78;;;14.30;78.40;;;;;;6093205;23;20061;-69
2021/07/06 01:39:49;;;;;;;9.05;4.10;;;14.30;78.40;;;;;;6092257;23;20492;-69
2021/07/06 01:42:21;;;;;;;8.60;3.13;;;14.30;78.40;;;;;;6093123;23;20085;-69
2021/07/06 01:44:48;;;;;;;7.03;2.92;;;14.30;78.50;;;;;;6093807;23;20434;-70
2021/07/06 01:47:14;;;;;;;12.27;3.13;;;14.30;78.40;;;;;;6087833;23;20326;-70
2021/07/06 01:49:41;;;;;;;9.40;3.08;;;14.20;78.40;;;;;;6092790;23;20013;-69
2021/07/06 01:52:08;;;;;;;9.82;2.88;;;14.20;78.40;;;;;;6093214;23;20026;-70
2021/07/06 01:54:34;;;;;;;10.88;2.80;;;14.20;78.30;;;;;;6090957;23;20085;-70
2021/07/06 01:57:01;;;;;;;6.20;2.70;;;14.20;78.30;;;;;;6093240;23;20006;-70
2021/07/06 01:59:27;;;;;;;9.85;3.28;;;14.20;78.30;;;;;;6092189;23;19999;-70
2021/07/06 02:01:54;;;;;;;5.93;3.05;;;14.20;78.20;;;;;;6093286;23;20419;-70
2021/07/06 02:04:20;;;;;;;6.38;2.95;;;14.20;78.20;;;;;;6090527;23;20009;-70
2021/07/06 02:06:46;;;;;;;11.07;3.35;;;14.20;78.10;;;;;;6092145;23;20781;-70
2021/07/06 02:09:13;;;;;;;7.38;2.53;;;14.20;78.10;;;;;;6092471;23;20005;-71
2021/07/06 02:11:43;;;;;;;11.25;4.10;;;14.20;78.10;;;;;;6092773;23;20077;-70
2021/07/06 02:14:10;;;;;;;8.25;3.42;;;14.10;78.00;;;;;;6091903;23;20002;-70
2021/07/06 02:16:37;;;;;;;5.05;2.53;;;14.10;78.00;;;;;;6089791;23;19999;-70
2021/07/06 02:19:03;;;;;;;8.40;2.28;;;14.10;78.00;;;;;;6093013;23;20015;-70
2021/07/06 02:21:30;;;;;;;8.50;2.10;;;14.10;78.00;;;;;;6092089;23;20002;-70
2021/07/06 02:23:56;;;;;;;13.48;3.03;;;14.10;77.90;;;;;;6093666;23;20109;-70
2021/07/06 02:26:23;;;;;;;10.80;2.40;;;14.10;78.00;;;;;;6092772;23;20006;-69
2021/07/06 02:28:49;;;;;;;5.18;2.15;;;14.10;77.90;;;;;;6093399;23;20003;-70
2021/07/06 02:31:16;;;;;;;8.23;2.35;;;14.10;78.00;;;;;;6093683;23;20010;-70
2021/07/06 02:33:43;;;;;;;6.30;2.85;;;14.10;78.00;;;;;;6092653;23;20005;-69
2021/07/06 02:36:10;;;;;;;11.35;2.63;;;14.10;78.60;;;;;;6093651;23;20002;-69
2021/07/06 02:38:40;;;;;;;7.45;1.95;;;14.10;78.00;;;;;;6094326;23;20017;-70
2021/07/06 02:41:06;;;;;;;8.32;2.72;;;14.10;77.90;;;;;;6097008;23;19998;-70
2021/07/06 02:43:33;;;;;;;6.93;2.15;;;14.10;77.90;;;;;;6096057;23;20006;-70
2021/07/06 02:46:00;;;;;;;6.97;1.83;;;14.00;77.80;;;;;;6096685;23;20457;-70
2021/07/06 02:48:26;;;;;;;5.88;1.90;;;14.00;77.80;;;;;;6096521;23;20358;-69
2021/07/06 02:50:53;;;;;;;8.43;3.00;;;14.00;77.80;;;;;;6095987;23;20018;-69
2021/07/06 02:53:19;;;;;;;6.68;2.50;;;14.00;77.70;;;;;;6096850;23;20006;-69
2021/07/06 02:55:46;;;;;;;9.82;3.47;;;14.00;77.80;;;;;;6095803;23;20085;-70
2021/07/06 02:58:12;;;;;;;6.80;1.90;;;14.00;77.70;;;;;;6096760;23;20014;-69
2021/07/06 03:00:39;;;;;;;6.60;2.00;;;14.00;77.70;;;;;;6095477;23;20006;-70
2021/07/06 03:03:08;;;;;;;6.75;1.65;;;14.00;77.60;;;;;;6097119;23;20009;-70
2021/07/06 03:05:35;;;;;;;3.67;1.70;;;14.00;77.70;;;;;;6096229;23;20009;-70
2021/07/06 03:08:03;;;;;;;11.20;3.30;;;14.00;77.60;;;;;;6096423;23;20010;-70
2021/07/06 03:10:38;;;;;;;6.03;2.33;;;14.00;77.60;;;;;;6096742;23;20061;-70
2021/07/06 03:13:06;;;;;;;5.38;1.90;;;14.00;77.50;;;;;;6093407;23;20397;-70
2021/07/06 03:15:32;;;;;;;8.80;1.65;;;13.90;77.50;;;;;;6096715;23;20006;-70
2021/07/06 03:18:05;;;;;;;6.22;2.17;;;14.00;77.50;;;;;;6095506;23;20093;-69
2021/07/06 03:20:32;;;;;;;6.28;2.08;;;13.90;77.40;;;;;;6096652;23;20542;-69
2021/07/06 03:22:59;;;;;;;7.55;1.60;;;13.90;77.30;;;;;;6096090;23;20081;-70
2021/07/06 03:25:27;;;;;;;9.27;3.03;;;13.90;77.40;;;;;;6096156;23;20438;-70
2021/07/06 03:27:55;;;;;;;6.60;2.05;;;13.90;77.30;;;;;;6096844;23;19998;-69
2021/07/06 03:30:27;;;;;;;5.68;2.78;;;13.90;77.30;;;;;;6095373;23;20056;-69
2021/07/06 03:32:56;;;;;;;7.47;2.83;;;13.90;77.20;;;;;;6096566;23;20007;-70
2021/07/06 03:35:23;;;;;;;6.88;1.90;;;13.90;77.20;;;;;;6095423;23;20003;-70
2021/07/06 03:37:50;;;;;;;8.68;2.00;;;13.90;77.20;;;;;;6096556;23;20014;-71
2021/07/06 03:40:56;;;;;;;7.60;1.98;;;13.90;77.10;;;;;;6096062;23;20474;-70
2021/07/06 03:43:22;;;;;;;7.25;2.50;;;13.90;77.10;;;;;;6094632;23;20450;-68
2021/07/06 03:45:49;;;;;;;9.57;5.95;;;13.90;77.10;;;;;;6096562;23;20003;-68
2021/07/06 03:48:15;;;;;;;12.77;7.35;;;13.90;77.00;;;;;;6095237;23;20589;-70
2021/07/06 03:51:21;;;;;;;8.82;6.80;;;13.90;77.00;;;;;;6094915;23;20434;-70
2021/07/06 03:54:27;;;;;;;13.32;5.28;;;13.80;77.00;;;;;;6094322;23;20002;-70
2021/07/06 03:57:33;;;;;;;6.43;3.47;;;13.80;76.90;;;;;;6092895;23;20003;-70
2021/07/06 04:00:46;;;;;;;8.18;3.10;;;13.80;77.00;;;;;;6094181;23;20002;-70
2021/07/06 04:03:52;;;;;;;8.38;3.33;;;13.80;77.10;;;;;;6094854;23;20457;-69
2021/07/06 04:06:58;;;;;;;7.97;2.35;;;13.80;77.10;;;;;;6094548;23;20022;-70
2021/07/06 04:10:04;;;;;;;9.93;2.67;;;13.80;77.20;;;;;;6093696;23;19999;-70
2021/07/06 04:13:10;;;;;;;6.72;3.00;;;13.80;77.30;;;;;;6094756;23;20447;-70
2021/07/06 04:16:16;;;;;;;5.93;1.92;;;13.80;77.30;;;;;;6094871;23;20077;-70
2021/07/06 04:19:22;;;;;;;7.22;2.40;;;13.80;77.30;;;;;;6093798;23;20017;-70
2021/07/06 04:22:28;;;;;;;8.90;2.80;;;13.80;77.40;;;;;;6093723;23;20009;-70
2021/07/06 04:25:35;;;;;;;11.73;2.90;;;13.80;77.30;;;;;;6095035;23;20073;-69
2021/07/06 04:28:41;;;;;;;8.45;2.97;;;13.80;77.40;;;;;;6094439;23;20034;-69
2021/07/06 04:31:47;;;;;;;9.68;2.20;;;13.70;77.40;;;;;;6092941;23;20003;-70
2021/07/06 04:34:53;;;;;;;9.80;3.35;;;13.80;77.50;;;;;;6094292;23;20073;-69
2021/07/06 04:37:59;;;;;;;16.70;4.57;;;13.70;77.40;;;;;;6094479;23;20057;-70
2021/07/06 04:41:05;;;;;;;8.27;3.08;;;13.70;77.40;;;;;;6093543;23;20095;-70
2021/07/06 04:44:11;;;;;;;11.85;5.22;;;13.70;77.40;;;;;;6092663;23;20010;-71
2021/07/06 04:46:38;;;;;;;18.42;10.52;;;13.80;77.50;;;;;;6092996;23;20329;-70
2021/07/06 04:49:04;;;;;;;19.08;8.23;;;13.70;77.50;;;;;;6092105;23;20058;-70
2021/07/06 04:51:32;;;;;;;18.50;8.32;;;13.70;77.50;;;;;;6092585;23;20026;-70
2021/07/06 04:54:00;;;;;;;18.67;9.43;;;13.70;77.60;;;;;;6092594;23;20449;-70
2021/07/06 04:56:28;;;;;;;17.75;8.88;;;13.70;77.60;;;;;;6092269;23;20006;-70
2021/07/06 04:58:55;;;;;;;20.42;8.30;;;13.70;77.70;;;;;;6092705;23;20018;-70
2021/07/06 05:01:25;;;;;;;14.20;7.30;;;13.70;77.70;;;;;;6091143;23;20002;-70
2021/07/06 05:03:52;;;;;;;18.15;7.90;;;13.70;77.70;;;;;;6092727;23;20034;-70
2021/07/06 05:06:19;;;;;;;16.92;8.02;;;13.70;77.70;;;;;;6091476;23;20030;-71
2021/07/06 05:08:46;;;;;;;14.80;7.90;;;13.60;77.70;;;;;;6092225;23;20093;-70
2021/07/06 05:11:14;;;;;;;17.98;9.05;;;13.60;77.70;;;;;;6092453;23;19999;-70
2021/07/06 05:13:41;;;;;;;14.90;8.77;;;13.60;77.70;;;;;;6090619;23;20025;-70
2021/07/06 05:16:07;;;;;;;23.83;9.13;;;13.60;77.70;;;;;;6092474;23;20006;-71
2021/07/06 05:18:34;;;;;;;20.02;11.38;;;13.60;77.60;;;;;;6091205;23;20036;-70
2021/07/06 05:21:40;;;;;;;14.02;8.63;;;13.60;77.60;;;;;;6087215;23;19998;-70
2021/07/06 05:24:07;;;;;;;20.65;10.13;;;13.60;77.60;;;;;;6090408;23;20021;-70
2021/07/06 05:26:33;;;;;;;15.35;9.73;;;13.60;77.60;;;;;;6089438;23;19999;-70
2021/07/06 05:29:00;;;;;;;20.27;10.40;;;13.60;77.60;;;;;;6092134;23;20006;-70
2021/07/06 05:32:06;;;;;;;18.23;8.18;;;13.60;77.50;;;;;;6091414;23;20002;-70
2021/07/06 05:35:12;;;;;;;16.55;7.78;;;13.60;77.50;;;;;;6092154;23;20007;-70
2021/07/06 05:38:19;;;;;;;11.68;7.30;;;13.60;77.40;;;;;;6091853;23;20010;-70
2021/07/06 05:41:25;;;;;;;15.30;7.75;;;13.60;77.40;;;;;;6092543;23;20558;-70
2021/07/06 05:44:31;;;;;;;11.77;6.80;;;13.60;77.40;;;;;;6092846;23;20002;-70
2021/07/06 05:47:38;;;;;;;10.50;6.00;;;13.60;77.30;;;;;;6093578;23;20010;-71
2021/07/06 05:50:47;;;;;;;16.63;7.72;;;13.50;77.30;;;;;;6090582;23;20505;-70
2021/07/06 05:53:53;;;;;;;15.05;8.00;;;13.60;77.30;;;;;;6089588;23;20312;-69
2021/07/06 05:56:59;;;;;;;25.67;7.82;;;13.60;77.30;;;;;;6093068;23;20007;-69
2021/07/06 06:00:05;;;;;;;19.75;8.50;;;13.50;77.20;;;;;;6092770;23;20085;-70
2021/07/06 06:03:11;;;;;;;14.70;6.90;;;13.50;77.30;;;;;;6091320;23;20006;-70
2021/07/06 06:06:20;;;;;;;13.27;5.90;;;13.50;77.30;;;;;;6091957;23;20005;-70
2021/07/06 06:09:27;;;;;;;13.15;6.97;;;13.50;77.40;;;;;;6092832;23;20014;-70
2021/07/06 06:12:33;;;;;;;12.30;6.53;;;13.50;77.40;;;;;;6092525;23;20007;-70
2021/07/06 06:15:39;;;;;;;15.60;7.10;;;13.50;77.50;;;;;;6091541;23;20014;-69
2021/07/06 06:18:45;;;;;;;19.23;7.05;;;13.50;77.50;;;;;;6091678;23;20022;-69
2021/07/06 06:21:51;;;;;;;18.20;8.48;;;13.50;77.60;;;;;;6090829;23;20445;-71
2021/07/06 06:24:57;;;;;;;19.92;8.60;;;13.50;77.70;;;;;;6089436;23;20074;-70
2021/07/06 06:28:03;;;;;;;16.38;9.50;;;13.50;77.80;;;;;;6090786;23;20002;-70
2021/07/06 06:31:10;;;;;;;14.88;9.45;;;13.50;77.90;;;;;;6091212;23;20003;-69
2021/07/06 06:34:16;;;;;;;16.83;9.25;;;13.50;78.10;;;;;;6090685;23;20002;-69
2021/07/06 06:37:04;;;;;;;16.83;9.15;;;13.50;78.20;;;;;;6090140;23;20006;-69
2021/07/06 06:39:31;;;;;;;20.20;8.15;;;13.50;78.30;;;;;;6090260;23;20046;-70
2021/07/06 06:41:57;;;;;;;21.77;9.95;;;13.50;78.30;;;;;;6092663;23;20007;-71
2021/07/06 06:44:23;;;;;;;19.85;8.32;;;13.50;78.50;;;;;;6092121;23;20009;-71
2021/07/06 06:46:50;;;;;;;18.38;8.88;;;13.50;78.50;;;;;;6092950;23;20030;-73
2021/07/06 06:49:16;;;;;;;20.77;10.57;;;13.50;78.60;;;;;;6090543;23;20080;-72
2021/07/06 06:51:43;;;;;;;21.55;8.63;;;13.50;78.70;;;;;;6091326;23;20069;-69
2021/07/06 06:54:09;;;;;;;14.38;6.82;;;13.50;78.90;;;;;;6088596;23;20007;-69
2021/07/06 06:56:39;;;;;;;14.82;7.25;;;13.50;78.90;;;;;;6093184;23;20419;-69
2021/07/06 06:59:07;;;;;;;17.52;6.03;;;13.50;79.00;;;;;;6091669;23;20035;-70
2021/07/06 07:01:34;;;;;;;20.77;7.05;;;13.50;79.10;;;;;;6091893;23;20003;-69
2021/07/06 07:04:01;;;;;;;16.08;7.00;;;13.50;79.30;;;;;;6092612;23;20004;-71
2021/07/06 07:06:27;;;;;;;14.95;5.00;;;13.50;79.30;;;;;;6090424;23;20500;-69
2021/07/06 07:08:54;;;;;;;10.55;6.18;;;13.50;79.50;;;;;;6092355;23;20398;-70
2021/07/06 07:11:21;;;;;;;12.23;6.70;;;13.50;79.60;;;;;;6091544;23;19999;-69
2021/07/06 07:13:48;;;;;;;11.43;5.35;;;13.50;79.70;;;;;;6092515;23;20023;-69
2021/07/06 07:16:15;;;;;;;10.93;4.82;;;13.60;79.70;;;;;;6091211;23;20009;-69
2021/07/06 07:18:43;;;;;;;11.73;5.90;;;13.60;79.80;;;;;;6092307;23;20114;-69
2021/07/06 07:21:10;;;;;;;12.95;4.63;;;13.60;80.00;;;;;;6091774;23;20081;-69
2021/07/06 07:23:38;;;;;;;8.70;5.10;;;13.60;80.10;;;;;;6091563;23;19998;-69
2021/07/06 07:26:05;;;;;;;15.00;4.85;;;13.60;80.10;;;;;;6094282;23;20013;-70
2021/07/06 07:28:32;;;;;;;9.95;5.50;;;13.60;80.20;;;;;;6092713;23;20013;-70
2021/07/06 07:30:58;;;;;;;11.45;5.03;;;13.60;80.30;;;;;;6093223;23;20089;-71
2021/07/06 07:33:25;;;;;;;8.60;4.75;;;13.70;80.40;;;;;;6092254;23;20481;-72
2021/07/06 07:35:51;;;;;;;10.35;5.80;;;13.70;80.50;;;;;;6092088;23;20037;-71
2021/07/06 07:38:18;;;;;;;7.55;4.40;;;13.70;80.60;;;;;;6092660;23;20011;-71
2021/07/06 07:40:44;;;;;;;10.77;4.50;;;13.70;80.60;;;;;;6092956;23;20081;-71
2021/07/06 07:43:11;;;;;;;13.02;4.95;;;13.70;80.70;;;;;;6091987;23;20007;-73
2021/07/06 07:45:38;;;;;;;10.05;5.30;;;13.70;80.80;;;;;;6091804;23;20744;-74
2021/07/06 07:48:46;;;;;;;11.20;5.57;;;13.80;80.90;;;;;;6092607;23;20002;-70
2021/07/06 07:51:52;;;;;;;9.68;4.82;;;13.80;81.00;;;;;;6092942;23;20332;-74
2021/07/06 07:54:58;;;;;;;11.18;5.72;;;13.80;81.10;;;;;;6093392;23;20006;-73
2021/07/06 07:58:04;;;;;;;11.05;5.63;;;13.80;81.20;;;;;;6093258;23;20042;-76
2021/07/06 08:01:10;;;;;;;12.98;5.35;;;13.90;81.20;;;;;;6095145;23;20010;-74
2021/07/06 08:04:16;;;;;;;8.38;4.38;;;13.90;81.30;;;;;;6092777;23;20505;-72
2021/07/06 08:07:26;;;;;;;10.77;5.72;;;14.00;81.40;;;;;;6093220;23;20002;-72
2021/07/06 08:10:32;;;;;;;12.43;4.88;;;14.00;81.40;;;;;;6093635;23;20076;-76
2021/07/06 08:13:41;;;;;;;6.43;4.13;;;14.00;81.50;;;;;;6093852;23;20015;-77
2021/07/06 08:16:47;;;;;;;7.72;4.13;;;14.00;81.60;;;;;;6092583;23;20016;-76
2021/07/06 08:19:59;;;;;;;9.50;3.00;;;14.10;81.60;;;;;;6094370;23;20038;-75
2021/07/06 08:23:05;;;;;;;9.18;3.08;;;14.10;81.60;;;;;;6093075;23;20308;-73
2021/07/06 08:26:11;;;;;;;7.05;2.70;;;14.20;81.70;;;;;;6093614;23;19998;-76
2021/07/06 08:29:18;;;;;;;8.13;3.10;;;14.20;81.70;;;;;;6093767;23;20073;-77
2021/07/06 08:32:24;;;;;;;5.85;2.63;;;14.20;81.70;;;;;;6094168;23;20029;-73
2021/07/06 08:35:30;;;;;;;6.55;2.22;;;14.30;81.70;;;;;;6093182;23;20003;-78
2021/07/06 08:38:39;;;;;;;5.60;2.05;;;14.30;81.70;;;;;;6091091;23;20072;-79
2021/07/06 08:41:45;;;;;;;4.68;2.55;;;14.30;81.70;;;;;;6092948;23;20628;-71
2021/07/06 08:44:51;;;;;;;7.78;3.15;;;14.40;81.70;;;;;;6093547;23;20003;-73
2021/07/06 08:47:57;;;;;;;4.07;1.80;;;14.40;81.50;;;;;;6092944;23;20010;-73
2021/07/06 08:51:04;;;;;;;8.55;3.05;;;14.40;81.30;;;;;;6092438;23;20003;-72
2021/07/06 08:54:12;;;;;;;3.38;2.25;;;14.50;81.20;;;;;;6093655;23;20002;-71
2021/07/06 08:57:21;;;;;;;6.68;1.90;;;14.50;81.00;;;;;;6093703;23;20013;-71
2021/07/06 09:00:30;;;;;;;4.05;1.85;;;14.50;80.70;;;;;;6092896;23;20445;-71
2021/07/06 09:03:22;;;;;;;6.05;1.50;;;14.60;80.50;;;;;;6092766;23;20053;-71
2021/07/06 09:06:28;;;;;;;10.25;2.65;;;14.70;80.30;;;;;;6094892;23;20446;-71
2021/07/06 09:09:36;;;;;;;7.28;1.70;;;14.70;80.00;;;;;;6093061;23;20002;-72
2021/07/06 09:12:44;;;;;;;7.93;2.38;;;14.80;79.70;;;;;;6093062;23;20346;-71
2021/07/06 09:16:03;;;;;;;4.93;1.88;;;14.80;79.40;;;;;;6092992;23;19998;-71
2021/07/06 09:19:09;;;;;;;4.35;1.50;;;14.80;79.00;;;;;;6093489;23;20018;-68
2021/07/06 09:22:32;;;;;;;4.75;1.92;;;14.90;78.80;;;;;;6093060;23;20077;-71
2021/07/06 09:25:21;;;;;;;3.90;1.80;;;14.90;78.50;;;;;;6093494;23;20081;-68
2021/07/06 09:28:27;;;;;;;4.18;1.48;;;14.90;78.30;;;;;;6094132;23;20010;-68
2021/07/06 09:31:33;;;;;;;8.60;1.88;;;15.00;78.00;;;;;;6091757;23;20011;-69
2021/07/06 09:34:48;;;;;;;3.05;1.65;;;15.00;77.50;;;;;;6092832;23;20006;-69
2021/07/06 09:37:43;;;;;;;4.85;1.55;;;15.10;77.30;;;;;;6093658;23;20465;-70
2021/07/06 09:40:53;;;;;;;5.15;1.63;;;15.10;77.10;;;;;;6093319;23;20010;-69
2021/07/06 09:44:05;;;;;;;5.10;2.72;;;15.10;77.00;;;;;;6092154;23;20010;-70
2021/07/06 09:47:14;;;;;;;6.28;1.27;;;15.20;76.90;;;;;;6091255;23;19998;-71
2021/07/06 09:50:13;;;;;;;7.57;1.63;;;15.20;77.10;;;;;;6092777;23;20010;-70
2021/07/06 09:53:19;;;;;;;4.57;1.23;;;15.30;76.00;;;;;;6090442;23;20593;-69
2021/07/06 09:56:31;;;;;;;9.73;2.72;;;15.30;75.80;;;;;;6090100;23;20509;-72
2021/07/06 09:59:40;;;;;;;6.15;1.60;;;15.40;75.80;;;;;;6088929;23;20045;-68
2021/07/06 10:02:46;;;;;;;9.52;2.53;;;15.50;75.60;;;;;;6090703;23;20459;-70
2021/07/06 10:05:52;;;;;;;8.75;1.90;;;15.50;75.40;;;;;;6089555;23;20517;-75
2021/07/06 10:08:58;;;;;;;5.55;1.25;;;15.50;75.10;;;;;;6089121;23;20014;-72
2021/07/06 10:12:04;;;;;;;8.55;2.08;;;15.60;75.00;;;;;;6090992;23;20009;-67
2021/07/06 10:15:10;;;;;;;3.85;1.17;;;15.60;74.90;;;;;;6090308;23;20010;-68
2021/07/06 10:18:16;;;;;;;5.00;1.45;;;15.70;74.80;;;;;;6088812;23;20038;-74
2021/07/06 10:21:23;;;;;;;3.63;1.42;;;15.80;74.70;;;;;;6090171;23;20451;-69
2021/07/06 10:24:29;;;;;;;4.13;1.60;;;15.80;75.20;;;;;;6090802;23;20030;-70
2021/07/06 10:27:35;;;;;;;5.53;1.27;;;15.90;74.30;;;;;;6091680;23;20070;-78
2021/07/06 10:30:47;;;;;;;5.65;1.98;;;16.00;73.80;;;;;;6090498;23;20014;-78
2021/07/06 10:33:36;;;;;;;6.45;1.40;;;16.00;73.50;;;;;;6092976;23;20010;-83
2021/07/06 10:36:45;;;;;;;6.68;1.70;;;16.10;73.40;;;;;;6090934;23;20011;-91
2021/07/06 10:40:06;;;;;;;6.18;1.90;;;16.10;73.30;;;;;;6090567;23;20042;-77
2021/07/06 10:42:40;;;;;;;5.50;1.58;;;16.20;73.30;;;;;;6091014;23;20006;-73
2021/07/06 10:45:56;;;;;;;4.55;1.50;;;16.20;73.10;;;;;;6091834;23;20049;-71
2021/07/06 10:49:20;;;;;;;9.30;2.13;;;16.20;72.90;;;;;;6090334;23;20006;-71
2021/07/06 10:52:26;;;;;;;5.53;1.83;;;16.20;73.00;;;;;;6088263;23;20097;-74
2021/07/06 10:54:53;;;;;;;7.53;1.25;;;16.20;73.00;;;;;;6091264;23;20011;-75
2021/07/06 10:57:59;;;;;;;7.93;2.00;;;16.20;72.90;;;;;;6091598;23;20010;-73
2021/07/06 11:01:20;;;;;;;4.03;1.65;;;16.20;72.60;;;;;;6088650;23;20061;-73
2021/07/06 11:03:47;;;;;;;4.60;1.40;;;16.20;72.50;;;;;;6093067;23;20021;-74
2021/07/06 11:06:44;;;;;;;2.97;1.17;;;16.30;72.30;;;;;;6093776;23;20041;-71
2021/07/06 11:09:39;;;;;;;4.15;1.25;;;16.30;72.30;;;;;;6093887;23;20002;-76
2021/07/06 11:13:03;;;;;;;6.47;1.70;;;16.30;72.20;;;;;;6067000;23;20019;-79
2021/07/06 11:16:09;;;;;;;4.93;1.50;;;16.40;72.10;;;;;;6093143;23;20062;-79
2021/07/06 11:18:42;;;;;;;7.78;1.30;;;16.40;71.80;;;;;;6087112;23;20435;-73
2021/07/06 11:21:32;;;;;;;5.30;1.25;;;16.50;71.60;;;;;;6088398;23;19999;-72
2021/07/06 11:24:14;;;;;;;5.35;2.13;;;16.50;71.50;;;;;;6091769;23;20049;-69
2021/07/06 11:26:43;;;;;;;6.10;1.50;;;16.60;71.30;;;;;;6090139;23;20036;-68
2021/07/06 11:29:10;;;;;;;7.15;1.88;;;16.70;71.10;;;;;;6091398;23;20006;-67
2021/07/06 11:31:37;;;;;;;6.72;1.60;;;16.80;70.90;;;;;;6090484;23;21246;-68
2021/07/06 11:34:05;;;;;;;6.80;2.20;;;16.80;70.70;;;;;;6091466;23;20013;-71
2021/07/06 11:36:32;;;;;;;6.25;1.67;;;16.90;70.50;;;;;;6091499;23;20631;-71
2021/07/06 11:39:01;;;;;;;5.38;1.88;;;17.00;70.30;;;;;;6091379;23;20011;-69
2021/07/06 11:41:27;;;;;;;5.93;2.65;;;17.10;70.20;;;;;;6092149;23;19998;-70
2021/07/06 11:43:55;;;;;;;4.35;2.13;;;17.10;69.80;;;;;;6089789;23;20017;-69
2021/07/06 11:46:22;;;;;;;3.95;1.60;;;17.10;69.50;;;;;;6091929;23;20002;-69
2021/07/06 11:48:54;;;;;;;4.97;1.73;;;17.10;69.20;;;;;;6090638;23;20460;-70
2021/07/06 11:51:22;;;;;;;3.38;1.33;;;17.10;69.00;;;;;;6092381;23;20658;-68
2021/07/06 11:53:57;;;;;;;5.97;1.70;;;17.20;69.00;;;;;;6091919;23;20057;-70
2021/07/06 11:56:26;;;;;;;2.88;1.27;;;17.20;68.90;;;;;;6091622;23;20014;-69
2021/07/06 11:58:52;;;;;;;9.70;1.83;;;17.20;68.90;;;;;;6091909;23;20025;-69
2021/07/06 12:01:20;;;;;;;5.85;2.97;;;17.30;68.70;;;;;;6091208;23;19999;-68
2021/07/06 12:03:47;;;;;;;7.93;1.55;;;17.30;68.70;;;;;;6092042;23;20067;-74
2021/07/06 12:06:16;;;;;;;5.40;1.63;;;17.40;68.70;;;;;;6091050;23;20045;-71
2021/07/06 12:08:55;;;;;;;5.30;1.33;;;17.40;68.50;;;;;;6092427;23;20363;-71
2021/07/06 12:11:26;;;;;;;2.35;1.48;;;17.40;69.00;;;;;;6091343;23;20040;-71
2021/07/06 12:13:57;;;;;;;3.65;1.27;;;17.50;68.10;;;;;;6091515;23;20025;-71
2021/07/06 12:16:28;;;;;;;4.05;1.02;;;17.50;67.80;;;;;;6092168;23;20003;-71
2021/07/06 12:19:02;;;;;;;5.85;1.88;;;17.50;67.50;;;;;;6090622;23;20467;-71
2021/07/06 12:21:35;;;;;;;6.80;1.48;;;17.50;67.30;;;;;;6091817;23;20407;-71
2021/07/06 12:24:17;;;;;;;4.93;1.80;;;17.60;67.30;;;;;;6091294;23;20347;-71
2021/07/06 12:26:47;;;;;;;7.18;1.55;;;17.60;67.20;;;;;;6091040;23;20053;-71
2021/07/06 12:29:14;;;;;;;5.80;1.33;;;17.60;67.10;;;;;;6092317;23;20415;-71
2021/07/06 12:31:41;;;;;;;6.90;1.52;;;17.60;67.00;;;;;;6090365;23;20089;-71
2021/07/06 12:34:11;;;;;;;4.10;1.40;;;17.60;67.00;;;;;;6091887;23;20009;-71
2021/07/06 12:36:39;;;;;;;7.72;1.80;;;17.60;66.90;;;;;;6090457;23;19998;-70
2021/07/06 12:39:17;;;;;;;3.53;1.33;;;17.60;66.80;;;;;;6091764;23;20374;-71
2021/07/06 12:41:53;;;;;;;5.13;1.50;;;17.60;66.80;;;;;;6091935;23;20050;-71
2021/07/06 12:44:36;;;;;;;4.47;1.98;;;17.60;66.80;;;;;;6090541;23;20070;-71
2021/07/06 12:47:12;;;;;;;5.20;1.27;;;17.70;66.80;;;;;;6091458;23;20029;-71
2021/07/06 12:49:41;;;;;;;9.18;2.15;;;17.70;66.70;;;;;;6090222;23;20011;-71
2021/07/06 12:52:08;;;;;;;10.93;2.33;;;17.70;66.70;;;;;;6090771;23;20009;-71
2021/07/06 12:54:36;;;;;;;7.20;1.67;;;17.80;66.50;;;;;;6091125;23;20008;-71
2021/07/06 12:57:04;;;;;;;4.80;1.45;;;17.80;66.40;;;;;;6090596;23;19999;-71
2021/07/06 12:59:32;;;;;;;3.67;1.73;;;17.80;66.30;;;;;;6091231;23;20010;-71
2021/07/06 13:02:16;;;;;;;4.55;1.45;;;17.80;66.20;;;;;;6090006;23;19999;-71
2021/07/06 13:04:50;;;;;;;3.75;1.90;;;17.80;66.10;;;;;;6091209;23;20041;-71
2021/07/06 13:07:33;;;;;;;4.00;1.33;;;17.80;65.80;;;;;;6091236;23;20011;-71
2021/07/06 13:10:05;;;;;;;6.55;1.20;;;17.80;65.50;;;;;;6091449;23;19999;-71
2021/07/06 13:12:32;;;;;;;4.00;1.17;;;17.80;65.40;;;;;;6092393;23;20089;-71
2021/07/06 13:14:58;;;;;;;4.38;1.23;;;17.80;65.30;;;;;;6091002;23;19998;-71
2021/07/06 13:17:27;;;;;;;3.42;1.13;;;17.90;65.20;;;;;;6092306;23;20021;-71
2021/07/06 13:20:07;;;;;;;3.10;2.03;;;17.90;65.10;;;;;;6091232;23;20073;-71
2021/07/06 13:22:35;;;;;;;4.07;1.02;;;17.80;65.10;;;;;;6091878;23;20049;-71
2021/07/06 13:25:03;;;;;;;5.68;2.03;;;17.90;65.20;;;;;;6092383;23;20009;-72
2021/07/06 13:27:31;;;;;;;4.25;1.20;;;17.80;65.00;;;;;;6090986;23;20082;-71
2021/07/06 13:30:07;;;;;;;4.60;1.50;;;17.80;65.00;;;;;;6092132;23;20010;-71
2021/07/06 13:32:47;;;;;;;4.90;1.05;;;17.80;64.80;;;;;;6089540;23;20117;-71
2021/07/06 13:35:15;;;;;;;2.85;1.42;;;17.90;64.80;;;;;;6092097;23;20014;-71
2021/07/06 13:37:43;;;;;;;6.53;1.25;;;17.80;64.70;;;;;;6091454;23;20014;-71
2021/07/06 13:40:13;;;;;;;10.98;1.83;;;17.80;64.80;;;;;;6091597;23;20124;-71
2021/07/06 13:42:40;;;;;;;4.32;1.70;;;17.80;64.80;;;;;;6092467;23;20449;-70
2021/07/06 13:45:10;;;;;;;6.13;1.30;;;17.80;65.00;;;;;;6090658;23;20003;-71
2021/07/06 13:47:37;;;;;;;6.32;2.35;;;17.80;65.00;;;;;;6091921;23;20055;-71
2021/07/06 13:50:06;;;;;;;5.82;1.58;;;17.80;64.80;;;;;;6090760;23;20010;-71
2021/07/06 13:52:32;;;;;;;5.03;1.40;;;17.80;64.70;;;;;;6091356;23;20025;-71
2021/07/06 13:55:00;;;;;;;2.88;1.30;;;17.70;64.70;;;;;;6090416;23;20462;-71
2021/07/06 13:57:28;;;;;;;4.80;1.60;;;17.70;64.70;;;;;;6090838;23;20090;-71